Saxaren — SKHW — position and weather

sailwx.info

Track history (hours):
 
Tides and Currents Weather Stations Pressure Air Temp Water Temp Dewpoint Dewpoint Depression Visibility Wind Speed Wind Dir Waves Ship Positions

Saxaren

Last reported at 2015-Sep-03 13:24 UTC. Time now 2015-Sep-04 01:36 UTC.
Position N 59°20' E 018°11'.

Length 38 m; draft 1.8 m.

Type: Passenger vessel. MMSI: 265512110.

Date/timePositionNaut miles runAvg speedWind from/ knotsBaromVisibWave heightAir tempDewpointWater temp
2015-Sep-03 13:24N 59°20' E 018°11'3 4.0
2015-Sep-03 12:33N 59°20' E 018°05'0 0.0
2015-Sep-03 11:33N 59°20' E 018°05'0 0.0
2015-Sep-03 10:33N 59°20' E 018°05'0 0.0
2015-Sep-03 09:33N 59°20' E 018°05'0 0.0
2015-Sep-03 08:33N 59°20' E 018°05'0 0.0
2015-Sep-03 07:33N 59°20' E 018°05'0 0.0
2015-Sep-03 06:33N 59°20' E 018°05'0 0.0
2015-Sep-03 05:33N 59°20' E 018°05'0 0.0
2015-Sep-03 04:33N 59°20' E 018°05'0 0.0
2015-Sep-03 03:33N 59°20' E 018°05'0 0.0
2015-Sep-03 02:33N 59°20' E 018°05'0 0.0
2015-Sep-03 01:33N 59°20' E 018°05'0 0.0
2015-Sep-03 00:33N 59°20' E 018°05'0 0.0
2015-Sep-02 23:33N 59°20' E 018°05'0 0.0
2015-Sep-02 22:33N 59°20' E 018°05'0 0.0
2015-Sep-02 21:33N 59°20' E 018°05'0 0.0
2015-Sep-02 20:33N 59°20' E 018°05'0 0.0
2015-Sep-02 19:33N 59°20' E 018°05'0 0.0
2015-Sep-02 18:33N 59°20' E 018°05'0 0.0
2015-Sep-02 17:33N 59°20' E 018°05'0 0.0
2015-Sep-02 16:33N 59°20' E 018°05'8 0.9
2015-Sep-02 07:13N 59°23' E 018°20'8 5.1
2015-Sep-02 05:33N 59°20' E 018°04'0 0.0
2015-Sep-02 04:33N 59°20' E 018°04'0 0.0
2015-Sep-02 03:33N 59°20' E 018°04'0 0.0
2015-Sep-02 02:33N 59°20' E 018°04'0 0.0
2015-Sep-02 01:33N 59°20' E 018°04'0 0.0
2015-Sep-02 00:33N 59°20' E 018°04'0 0.0
2015-Sep-01 23:33N 59°20' E 018°04'0 0.0
2015-Sep-01 22:33N 59°20' E 018°04'0 0.0
2015-Sep-01 21:33N 59°20' E 018°04'0 0.0
2015-Sep-01 20:33N 59°20' E 018°04'0 0.0
2015-Sep-01 19:33N 59°20' E 018°04'0 0.0
2015-Sep-01 18:33N 59°20' E 018°04'0 0.0
2015-Sep-01 17:33N 59°20' E 018°04'0 0.0
2015-Sep-01 16:33N 59°20' E 018°04'0 0.0
2015-Aug-30 14:33N 59°20' E 018°05'0 0.0
2015-Aug-28 14:33N 59°19' E 018°05'0 0.3
2015-Aug-28 13:33N 59°20' E 018°05'0 0.0
2015-Aug-28 12:33N 59°20' E 018°05'0 0.0
2015-Aug-28 11:33N 59°20' E 018°05'0 0.0
2015-Aug-28 10:33N 59°20' E 018°05'0 0.0
2015-Aug-28 09:33N 59°20' E 018°05'4 0.2
2015-Aug-27 13:27N 59°20' E 018°12'4 4.0
2015-Aug-27 12:33N 59°20' E 018°05'0 0.0
2015-Aug-27 11:33N 59°20' E 018°05'0 0.0
2015-Aug-27 10:33N 59°20' E 018°05'0 0.0
2015-Aug-27 09:34N 59°20' E 018°05'0 0.0
2015-Aug-27 08:33N 59°20' E 018°05'0 0.0
2015-Aug-27 07:32N 59°20' E 018°05'0 0.0
2015-Aug-27 06:33N 59°20' E 018°05'0 0.0
2015-Aug-27 05:33N 59°20' E 018°05'0 0.0
2015-Aug-27 04:33N 59°20' E 018°05'0 0.0
2015-Aug-27 03:33N 59°20' E 018°05'0 0.0
2015-Aug-27 02:33N 59°20' E 018°05'0 0.0
2015-Aug-27 01:34N 59°20' E 018°05'0 0.0
2015-Aug-27 00:34N 59°20' E 018°05'0 0.0
2015-Aug-26 23:33N 59°20' E 018°05'0 0.0
2015-Aug-26 22:33N 59°20' E 018°05'0 0.0
2015-Aug-26 21:33N 59°20' E 018°05'0 0.0
2015-Aug-26 20:33N 59°20' E 018°05'0 0.0
2015-Aug-26 19:33N 59°20' E 018°05'0 0.0
2015-Aug-26 18:33N 59°20' E 018°05'0 0.0
2015-Aug-26 17:33N 59°20' E 018°05'0 0.0
2015-Aug-26 16:33N 59°20' E 018°05'1 0.1
2015-Aug-26 06:21N 59°19' E 018°05'1 0.9
2015-Aug-26 05:33N 59°20' E 018°05'0 0.0
2015-Aug-26 04:29N 59°20' E 018°05'0 0.0
2015-Aug-26 03:25N 59°20' E 018°05'0 0.0
2015-Aug-26 02:33N 59°20' E 018°05'0 0.0
2015-Aug-26 01:33N 59°20' E 018°05'0 0.0
2015-Aug-26 00:33N 59°20' E 018°05'0 0.0
2015-Aug-25 23:33N 59°20' E 018°05'0 0.0
2015-Aug-25 22:33N 59°20' E 018°05'0 0.0
2015-Aug-25 21:33N 59°20' E 018°05'0 0.0
2015-Aug-25 20:33N 59°20' E 018°05'0 0.0
2015-Aug-25 19:33N 59°20' E 018°05'0 0.0
2015-Aug-25 18:33N 59°20' E 018°05'0 0.0
2015-Aug-25 17:33N 59°20' E 018°05'0 0.0
2015-Aug-25 16:33N 59°20' E 018°05'3 0.3
2015-Aug-25 06:32N 59°19' E 018°09'3 2.6
2015-Aug-25 05:33N 59°20' E 018°05'0 0.0
2015-Aug-25 04:29N 59°20' E 018°05'0 0.0
2015-Aug-25 03:33N 59°20' E 018°05'0 0.0
2015-Aug-25 02:33N 59°20' E 018°05'0 0.0
2015-Aug-25 01:33N 59°20' E 018°05'0 0.0
2015-Aug-25 00:33N 59°20' E 018°05'0 0.0
2015-Aug-24 23:33N 59°20' E 018°05'0 0.0
2015-Aug-24 22:33N 59°20' E 018°05'0 0.0
2015-Aug-24 21:33N 59°20' E 018°05'0 0.0
2015-Aug-24 20:33N 59°20' E 018°05'0 0.0
2015-Aug-24 19:33N 59°20' E 018°05'0 0.0
2015-Aug-24 18:33N 59°20' E 018°05'0 0.0
2015-Aug-24 17:33N 59°20' E 018°05'0 0.0
2015-Aug-24 16:33N 59°20' E 018°05'0 0.0
2015-Aug-24 15:33N 59°20' E 018°05'0 0.0
2015-Aug-24 14:33N 59°20' E 018°05'0 0.0
2015-Aug-24 13:33N 59°20' E 018°05'  
Track history (hours):
 
Tides and Currents Weather Stations Pressure Air Temp Water Temp Dewpoint Dewpoint Depression Visibility Wind Speed Wind Dir Waves Ship Positions

Saxaren

Last reported at 2015-Sep-03 13:24 UTC. Time now 2015-Sep-04 01:36 UTC.
Position N 59°20' E 018°11'.

Length 38 m; draft 1.8 m.

Type: Passenger vessel. MMSI: 265512110.

Date/timePositionNaut miles runAvg speedWind from/ knotsBaromVisibWave heightAir tempDewpointWater temp
2015-Sep-03 13:24N 59°20' E 018°11'3 4.0
2015-Sep-03 12:33N 59°20' E 018°05'0 0.0
2015-Sep-03 11:33N 59°20' E 018°05'0 0.0
2015-Sep-03 10:33N 59°20' E 018°05'0 0.0
2015-Sep-03 09:33N 59°20' E 018°05'0 0.0
2015-Sep-03 08:33N 59°20' E 018°05'0 0.0
2015-Sep-03 07:33N 59°20' E 018°05'0 0.0
2015-Sep-03 06:33N 59°20' E 018°05'0 0.0
2015-Sep-03 05:33N 59°20' E 018°05'0 0.0
2015-Sep-03 04:33N 59°20' E 018°05'0 0.0
2015-Sep-03 03:33N 59°20' E 018°05'0 0.0
2015-Sep-03 02:33N 59°20' E 018°05'0 0.0
2015-Sep-03 01:33N 59°20' E 018°05'0 0.0
2015-Sep-03 00:33N 59°20' E 018°05'0 0.0
2015-Sep-02 23:33N 59°20' E 018°05'0 0.0
2015-Sep-02 22:33N 59°20' E 018°05'0 0.0
2015-Sep-02 21:33N 59°20' E 018°05'0 0.0
2015-Sep-02 20:33N 59°20' E 018°05'0 0.0
2015-Sep-02 19:33N 59°20' E 018°05'0 0.0
2015-Sep-02 18:33N 59°20' E 018°05'0 0.0
2015-Sep-02 17:33N 59°20' E 018°05'0 0.0
2015-Sep-02 16:33N 59°20' E 018°05'8 0.9
2015-Sep-02 07:13N 59°23' E 018°20'8 5.1
2015-Sep-02 05:33N 59°20' E 018°04'0 0.0
2015-Sep-02 04:33N 59°20' E 018°04'0 0.0
2015-Sep-02 03:33N 59°20' E 018°04'0 0.0
2015-Sep-02 02:33N 59°20' E 018°04'0 0.0
2015-Sep-02 01:33N 59°20' E 018°04'0 0.0
2015-Sep-02 00:33N 59°20' E 018°04'0 0.0
2015-Sep-01 23:33N 59°20' E 018°04'0 0.0
2015-Sep-01 22:33N 59°20' E 018°04'0 0.0
2015-Sep-01 21:33N 59°20' E 018°04'0 0.0
2015-Sep-01 20:33N 59°20' E 018°04'0 0.0
2015-Sep-01 19:33N 59°20' E 018°04'0 0.0
2015-Sep-01 18:33N 59°20' E 018°04'0 0.0
2015-Sep-01 17:33N 59°20' E 018°04'0 0.0
2015-Sep-01 16:33N 59°20' E 018°04'0 0.0
2015-Aug-30 14:33N 59°20' E 018°05'0 0.0
2015-Aug-28 14:33N 59°19' E 018°05'0 0.3
2015-Aug-28 13:33N 59°20' E 018°05'0 0.0
2015-Aug-28 12:33N 59°20' E 018°05'0 0.0
2015-Aug-28 11:33N 59°20' E 018°05'0 0.0
2015-Aug-28 10:33N 59°20' E 018°05'0 0.0
2015-Aug-28 09:33N 59°20' E 018°05'4 0.2
2015-Aug-27 13:27N 59°20' E 018°12'4 4.0
2015-Aug-27 12:33N 59°20' E 018°05'0 0.0
2015-Aug-27 11:33N 59°20' E 018°05'0 0.0
2015-Aug-27 10:33N 59°20' E 018°05'0 0.0
2015-Aug-27 09:34N 59°20' E 018°05'0 0.0
2015-Aug-27 08:33N 59°20' E 018°05'0 0.0
2015-Aug-27 07:32N 59°20' E 018°05'0 0.0
2015-Aug-27 06:33N 59°20' E 018°05'0 0.0
2015-Aug-27 05:33N 59°20' E 018°05'0 0.0
2015-Aug-27 04:33N 59°20' E 018°05'0 0.0
2015-Aug-27 03:33N 59°20' E 018°05'0 0.0
2015-Aug-27 02:33N 59°20' E 018°05'0 0.0
2015-Aug-27 01:34N 59°20' E 018°05'0 0.0
2015-Aug-27 00:34N 59°20' E 018°05'0 0.0
2015-Aug-26 23:33N 59°20' E 018°05'0 0.0
2015-Aug-26 22:33N 59°20' E 018°05'0 0.0
2015-Aug-26 21:33N 59°20' E 018°05'0 0.0
2015-Aug-26 20:33N 59°20' E 018°05'0 0.0
2015-Aug-26 19:33N 59°20' E 018°05'0 0.0
2015-Aug-26 18:33N 59°20' E 018°05'0 0.0
2015-Aug-26 17:33N 59°20' E 018°05'0 0.0
2015-Aug-26 16:33N 59°20' E 018°05'1 0.1
2015-Aug-26 06:21N 59°19' E 018°05'1 0.9
2015-Aug-26 05:33N 59°20' E 018°05'0 0.0
2015-Aug-26 04:29N 59°20' E 018°05'0 0.0
2015-Aug-26 03:25N 59°20' E 018°05'0 0.0
2015-Aug-26 02:33N 59°20' E 018°05'0 0.0
2015-Aug-26 01:33N 59°20' E 018°05'0 0.0
2015-Aug-26 00:33N 59°20' E 018°05'0 0.0
2015-Aug-25 23:33N 59°20' E 018°05'0 0.0
2015-Aug-25 22:33N 59°20' E 018°05'0 0.0
2015-Aug-25 21:33N 59°20' E 018°05'0 0.0
2015-Aug-25 20:33N 59°20' E 018°05'0 0.0
2015-Aug-25 19:33N 59°20' E 018°05'0 0.0
2015-Aug-25 18:33N 59°20' E 018°05'0 0.0
2015-Aug-25 17:33N 59°20' E 018°05'0 0.0
2015-Aug-25 16:33N 59°20' E 018°05'3 0.3
2015-Aug-25 06:32N 59°19' E 018°09'3 2.6
2015-Aug-25 05:33N 59°20' E 018°05'0 0.0
2015-Aug-25 04:29N 59°20' E 018°05'0 0.0
2015-Aug-25 03:33N 59°20' E 018°05'0 0.0
2015-Aug-25 02:33N 59°20' E 018°05'0 0.0
2015-Aug-25 01:33N 59°20' E 018°05'0 0.0
2015-Aug-25 00:33N 59°20' E 018°05'0 0.0
2015-Aug-24 23:33N 59°20' E 018°05'0 0.0
2015-Aug-24 22:33N 59°20' E 018°05'0 0.0
2015-Aug-24 21:33N 59°20' E 018°05'0 0.0
2015-Aug-24 20:33N 59°20' E 018°05'0 0.0
2015-Aug-24 19:33N 59°20' E 018°05'0 0.0
2015-Aug-24 18:33N 59°20' E 018°05'0 0.0
2015-Aug-24 17:33N 59°20' E 018°05'0 0.0
2015-Aug-24 16:33N 59°20' E 018°05'0 0.0
2015-Aug-24 15:33N 59°20' E 018°05'0 0.0
2015-Aug-24 14:33N 59°20' E 018°05'0 0.0
2015-Aug-24 13:33N 59°20' E 018°05'  

Dump ship's entire track history